createdAt,value
2018-10-16T00:02:27.764Z,13.87
2018-10-16T00:04:55.817Z,13.53
2018-10-16T00:07:23.908Z,14.13
2018-10-16T00:09:51.973Z,13.20
2018-10-16T00:12:20.041Z,13.53
2018-10-16T00:14:48.141Z,13.40
2018-10-16T00:17:16.212Z,13.83
2018-10-16T00:19:44.257Z,12.83
2018-10-16T00:22:12.445Z,12.28
2018-10-16T00:24:40.522Z,12.67
2018-10-16T00:27:08.578Z,12.57
2018-10-16T00:29:36.653Z,13.53
2018-10-16T00:32:04.713Z,13.00
2018-10-16T00:34:32.765Z,12.37
2018-10-16T00:37:00.805Z,13.10
2018-10-16T00:39:28.877Z,13.23
2018-10-16T00:41:57.713Z,13.83
2018-10-16T00:44:25.778Z,13.90
2018-10-16T00:46:53.833Z,13.60
2018-10-16T00:49:21.886Z,13.40
2018-10-16T00:51:49.938Z,13.10
2018-10-16T00:54:18.062Z,13.77
2018-10-16T00:56:46.138Z,13.93
2018-10-16T00:59:14.232Z,13.43
2018-10-16T01:01:42.294Z,13.97
2018-10-16T01:04:10.406Z,13.50
2018-10-16T01:06:38.531Z,14.03
2018-10-16T01:09:08.914Z,13.87
2018-10-16T01:11:37.171Z,13.10
2018-10-16T01:14:05.259Z,13.90
2018-10-16T01:16:33.355Z,12.87
2018-10-16T01:19:01.444Z,12.80
2018-10-16T01:21:29.557Z,12.03
2018-10-16T01:23:57.710Z,12.83
2018-10-16T01:26:25.803Z,12.87
2018-10-16T01:28:53.872Z,12.90
2018-10-16T01:31:21.963Z,12.53
2018-10-16T01:33:50.098Z,12.03
2018-10-16T01:36:18.163Z,12.70
2018-10-16T01:38:46.235Z,11.77
2018-10-16T01:41:14.318Z,10.83
2018-10-16T01:43:42.350Z,11.60
2018-10-16T01:46:10.405Z,11.37
2018-10-16T01:48:38.683Z,11.33
2018-10-16T01:51:07.099Z,11.30
2018-10-16T01:53:35.183Z,11.87
2018-10-16T01:56:03.263Z,12.40
2018-10-16T01:58:31.324Z,11.97
2018-10-16T02:00:59.382Z,12.33
2018-10-16T02:03:27.442Z,12.00
2018-10-16T02:05:55.519Z,12.57
2018-10-16T02:08:23.575Z,12.47
2018-10-16T02:10:51.630Z,11.90
2018-10-16T02:13:19.715Z,12.87
2018-10-16T02:15:47.767Z,12.63
2018-10-16T02:18:15.811Z,12.30
2018-10-16T02:20:43.878Z,13.03
2018-10-16T02:23:12.664Z,12.87
2018-10-16T02:25:40.715Z,12.70
2018-10-16T02:28:08.792Z,12.50
2018-10-16T02:30:36.868Z,12.20
2018-10-16T02:33:05.070Z,12.97
2018-10-16T02:35:33.152Z,11.87
2018-10-16T02:38:01.195Z,12.00
2018-10-16T02:40:29.247Z,12.80
2018-10-16T02:42:57.335Z,12.90
2018-10-16T02:45:25.395Z,12.20
2018-10-16T02:47:53.435Z,12.60
2018-10-16T02:50:21.476Z,12.17
2018-10-16T02:52:56.232Z,12.17
2018-10-16T02:55:24.268Z,11.23
2018-10-16T02:57:52.328Z,11.93
2018-10-16T03:00:20.397Z,12.23
2018-10-16T03:02:48.435Z,11.67
2018-10-16T03:05:16.468Z,12.30
2018-10-16T03:07:44.539Z,13.17
2018-10-16T03:10:13.336Z,12.87
2018-10-16T03:12:41.388Z,12.73
2018-10-16T03:15:11.084Z,12.87
2018-10-16T03:17:39.252Z,12.90
2018-10-16T03:20:07.569Z,12.77
2018-10-16T03:22:35.611Z,13.47
2018-10-16T03:25:03.696Z,13.50
2018-10-16T03:27:31.788Z,13.00
2018-10-16T03:29:59.812Z,13.13
2018-10-16T03:32:27.852Z,12.37
2018-10-16T03:34:55.893Z,13.47
2018-10-16T03:37:23.912Z,12.90
2018-10-16T03:39:51.976Z,12.70
2018-10-16T03:42:20.032Z,13.07
2018-10-16T03:44:48.048Z,12.80
2018-10-16T03:47:16.084Z,13.93
2018-10-16T03:49:44.112Z,14.03
2018-10-16T03:52:12.153Z,13.73
2018-10-16T03:54:40.204Z,13.83
2018-10-16T03:57:08.333Z,13.70
2018-10-16T03:59:36.325Z,13.90
2018-10-16T04:02:04.548Z,13.57
2018-10-16T04:04:32.620Z,14.30
2018-10-16T04:07:00.708Z,14.90
2018-10-16T04:09:28.765Z,13.57
2018-10-16T04:11:56.802Z,13.33
2018-10-16T04:14:24.850Z,13.87
2018-10-16T04:16:52.900Z,14.10
2018-10-16T04:19:20.955Z,14.43
2018-10-16T04:21:49.080Z,14.80
2018-10-16T04:24:17.112Z,14.87
2018-10-16T04:26:45.169Z,14.07
2018-10-16T04:29:13.938Z,14.23
2018-10-16T04:31:41.916Z,13.17
2018-10-16T04:34:10.444Z,14.10
2018-10-16T04:36:38.629Z,13.43
2018-10-16T04:39:07.757Z,14.07
2018-10-16T04:41:35.795Z,15.87
2018-10-16T04:44:03.915Z,13.67
2018-10-16T04:46:31.998Z,14.30
2018-10-16T04:49:00.034Z,14.00
2018-10-16T04:51:30.974Z,14.07
2018-10-16T04:53:59.134Z,14.40
2018-10-16T04:56:27.161Z,13.90
2018-10-16T04:58:55.457Z,14.70
2018-10-16T05:01:23.498Z,13.53
2018-10-16T05:03:51.581Z,13.63
2018-10-16T05:06:19.598Z,13.63
2018-10-16T05:08:47.674Z,14.60
2018-10-16T05:11:15.727Z,14.50
2018-10-16T05:13:43.907Z,14.93
2018-10-16T05:16:11.970Z,15.03
2018-10-16T05:18:40.015Z,15.70
2018-10-16T05:21:08.074Z,14.20
2018-10-16T05:23:36.102Z,15.47
2018-10-16T05:26:04.205Z,15.47
2018-10-16T05:28:32.242Z,15.87
2018-10-16T05:31:00.410Z,16.93
2018-10-16T05:33:28.431Z,16.07
2018-10-16T05:35:56.508Z,16.13
2018-10-16T05:38:24.571Z,15.47
2018-10-16T05:40:52.631Z,14.90
2018-10-16T05:43:20.682Z,14.73
2018-10-16T05:45:48.811Z,15.33
2018-10-16T05:48:16.863Z,13.93
2018-10-16T05:50:44.943Z,14.77
2018-10-16T05:53:13.000Z,14.30
2018-10-16T05:55:41.388Z,14.93
2018-10-16T05:58:09.910Z,14.97
2018-10-16T06:00:40.568Z,15.20
2018-10-16T06:03:09.143Z,15.17
2018-10-16T06:05:37.550Z,14.47
2018-10-16T06:08:06.057Z,13.83
2018-10-16T06:10:34.547Z,14.60
2018-10-16T06:13:02.970Z,14.63
2018-10-16T06:15:31.433Z,15.43
2018-10-16T06:18:01.550Z,14.13
2018-10-16T06:20:29.941Z,14.28
2018-10-16T06:22:58.321Z,14.03
2018-10-16T06:25:26.680Z,14.98
2018-10-16T06:27:55.053Z,14.27
2018-10-16T06:30:23.358Z,15.37
2018-10-16T06:32:51.712Z,14.90
2018-10-16T06:35:20.064Z,14.20
2018-10-16T06:37:48.412Z,15.10
2018-10-16T06:40:16.857Z,15.20
2018-10-16T06:42:45.240Z,14.60
2018-10-16T06:45:13.692Z,15.03
2018-10-16T06:47:42.132Z,15.00
2018-10-16T06:50:10.779Z,14.38
2018-10-16T06:52:39.233Z,15.47
2018-10-16T06:55:07.619Z,15.47
2018-10-16T06:57:35.944Z,14.83
2018-10-16T07:00:05.002Z,14.40
2018-10-16T07:02:33.337Z,14.33
2018-10-16T07:05:02.211Z,14.90
2018-10-16T07:07:30.512Z,15.20
2018-10-16T07:09:58.841Z,14.57
2018-10-16T07:12:27.365Z,15.20
2018-10-16T07:14:55.679Z,15.37
2018-10-16T07:17:24.161Z,15.27
2018-10-16T07:19:52.548Z,14.58
2018-10-16T07:22:20.913Z,14.80
2018-10-16T07:24:56.086Z,14.60
2018-10-16T07:27:24.469Z,16.17
2018-10-16T07:29:52.984Z,14.90
2018-10-16T07:32:21.337Z,14.58
2018-10-16T07:34:49.713Z,15.30
2018-10-16T07:37:18.001Z,14.73
2018-10-16T07:39:46.361Z,14.37
2018-10-16T07:42:15.797Z,13.90
2018-10-16T07:44:47.582Z,14.30
2018-10-16T07:47:16.125Z,15.50
2018-10-16T07:49:44.402Z,15.17
2018-10-16T07:52:18.869Z,15.07
2018-10-16T07:54:47.321Z,15.03
2018-10-16T07:59:50.685Z,14.83
2018-10-16T08:02:19.742Z,20.63
2018-10-16T08:04:47.749Z,15.30
2018-10-16T08:07:16.150Z,15.97
2018-10-16T08:09:44.150Z,16.70
2018-10-16T08:15:04.990Z,15.80
2018-10-16T08:17:33.498Z,15.80
2018-10-16T08:20:01.926Z,16.00
2018-10-16T08:22:29.994Z,16.30
2018-10-16T08:24:58.041Z,17.17
2018-10-16T08:27:26.082Z,18.43
2018-10-16T08:30:07.870Z,17.50
2018-10-16T08:32:35.966Z,16.77
2018-10-16T08:40:56.361Z,16.67
2018-10-16T08:43:38.833Z,18.87
2018-10-16T08:46:16.117Z,18.57
2018-10-16T08:59:06.273Z,18.87
2018-10-16T09:15:41.158Z,19.30
2018-10-16T09:18:09.622Z,19.03
2018-10-16T09:20:38.291Z,19.40
2018-10-16T09:23:10.614Z,19.43
2018-10-16T09:25:39.723Z,19.70
2018-10-16T09:28:14.190Z,20.47
2018-10-16T09:30:42.375Z,19.83
2018-10-16T09:33:11.179Z,20.20
2018-10-16T09:35:39.351Z,20.33
2018-10-16T09:38:07.523Z,19.20
2018-10-16T09:40:35.535Z,19.15
2018-10-16T09:43:03.564Z,19.52
2018-10-16T09:45:31.703Z,19.57
2018-10-16T09:47:59.835Z,19.10
2018-10-16T09:50:27.955Z,20.92
2018-10-16T09:52:56.128Z,18.70
2018-10-16T09:57:58.943Z,19.77
2018-10-16T10:00:32.477Z,19.77
2018-10-16T10:03:00.532Z,18.23
2018-10-16T10:05:28.644Z,19.50
2018-10-16T10:07:56.683Z,20.57
2018-10-16T10:10:24.796Z,17.45
2018-10-16T10:12:52.911Z,18.42
2018-10-16T10:15:20.973Z,17.15
2018-10-16T10:17:49.040Z,18.12
2018-10-16T10:20:17.077Z,17.37
2018-10-16T10:22:45.175Z,18.98
2018-10-16T10:25:13.307Z,16.65
2018-10-16T10:27:41.552Z,17.35
2018-10-16T10:30:10.560Z,16.62
2018-10-16T10:32:38.636Z,17.00
2018-10-16T10:35:07.434Z,16.95
2018-10-16T10:37:35.500Z,18.20
2018-10-16T10:40:03.567Z,17.35
2018-10-16T10:42:31.635Z,18.12
2018-10-16T10:44:59.676Z,18.92
2018-10-16T10:47:27.744Z,16.77
2018-10-16T10:49:55.927Z,17.02
2018-10-16T10:52:23.912Z,17.98
2018-10-16T10:54:52.188Z,17.37
2018-10-16T10:57:20.251Z,17.05
2018-10-16T10:59:48.332Z,12.33
2018-10-16T11:02:16.380Z,13.28
2018-10-16T11:04:44.403Z,13.65
2018-10-16T11:07:12.463Z,12.53
2018-10-16T11:09:40.529Z,12.33
2018-10-16T11:12:08.565Z,12.15
2018-10-16T11:14:36.588Z,9.43
2018-10-16T11:17:04.784Z,11.15
2018-10-16T11:19:32.940Z,12.00
2018-10-16T11:22:00.976Z,11.60
2018-10-16T11:24:29.021Z,11.68
2018-10-16T11:26:57.173Z,11.55
2018-10-16T11:29:25.264Z,11.75
2018-10-16T11:31:53.316Z,12.00
2018-10-16T11:34:21.485Z,9.70
2018-10-16T11:36:49.572Z,10.60
2018-10-16T11:39:24.098Z,10.15
2018-10-16T11:41:52.192Z,9.70
2018-10-16T11:44:20.257Z,9.00
2018-10-16T11:46:48.308Z,10.05
2018-10-16T11:49:16.377Z,9.90
2018-10-16T11:51:44.532Z,11.43
2018-10-16T11:54:12.644Z,11.35
2018-10-16T11:56:40.714Z,11.15
2018-10-16T11:59:08.827Z,10.15
2018-10-16T12:01:36.873Z,9.80
2018-10-16T12:04:04.953Z,10.72
2018-10-16T12:06:33.025Z,8.15
2018-10-16T12:09:01.217Z,9.50
2018-10-16T12:11:29.329Z,8.28
2018-10-16T12:13:57.569Z,7.67
2018-10-16T12:16:29.905Z,7.35
2018-10-16T12:19:05.526Z,6.78
2018-10-16T12:21:33.418Z,6.35
2018-10-16T12:24:01.516Z,6.53
2018-10-16T12:26:29.721Z,6.50
2018-10-16T12:28:57.842Z,7.83
2018-10-16T12:31:25.917Z,7.10
2018-10-16T12:33:53.966Z,7.58
2018-10-16T12:36:22.098Z,7.50
2018-10-16T12:38:50.357Z,6.62
2018-10-16T12:41:18.493Z,6.97
2018-10-16T12:43:46.576Z,7.10
2018-10-16T12:46:14.591Z,7.40
2018-10-16T12:48:42.634Z,6.87
2018-10-16T12:51:10.820Z,7.05
2018-10-16T12:53:38.780Z,7.95
2018-10-16T12:56:06.937Z,7.50
2018-10-16T12:58:47.273Z,7.08
2018-10-16T13:01:15.387Z,7.53
2018-10-16T13:03:43.485Z,7.83
2018-10-16T13:06:11.530Z,7.75
2018-10-16T13:08:39.518Z,7.30
2018-10-16T13:11:08.132Z,8.48
2018-10-16T13:13:36.066Z,8.73
2018-10-16T13:16:04.176Z,8.13
2018-10-16T13:18:32.207Z,7.92
2018-10-16T13:21:00.263Z,8.05
2018-10-16T13:23:28.358Z,7.95
2018-10-16T13:25:56.426Z,7.37
2018-10-16T13:28:24.476Z,8.20
2018-10-16T13:30:52.595Z,7.85
2018-10-16T13:33:20.674Z,8.45
2018-10-16T13:35:48.786Z,9.35
2018-10-16T13:38:16.847Z,9.10
2018-10-16T13:40:44.866Z,7.85
2018-10-16T13:43:12.919Z,7.85
2018-10-16T13:45:41.006Z,7.78
2018-10-16T13:48:09.064Z,7.75
2018-10-16T13:50:37.119Z,7.70
2018-10-16T13:53:05.235Z,8.38
2018-10-16T13:55:33.282Z,8.15
2018-10-16T13:58:01.386Z,8.25
2018-10-16T14:00:29.423Z,8.00
2018-10-16T14:02:57.475Z,7.25
2018-10-16T14:05:25.554Z,7.85
2018-10-16T14:07:53.648Z,7.83
2018-10-16T14:10:21.677Z,8.13
2018-10-16T14:12:49.783Z,7.50
2018-10-16T14:15:18.107Z,7.75
2018-10-16T14:17:46.192Z,7.00
2018-10-16T14:20:14.333Z,7.67
2018-10-16T14:22:43.048Z,7.05
2018-10-16T14:25:12.455Z,6.97
2018-10-16T14:27:40.978Z,7.50
2018-10-16T14:30:16.232Z,7.45
2018-10-16T14:32:44.328Z,7.25
2018-10-16T14:35:12.912Z,6.37
2018-10-16T14:37:41.060Z,6.78
2018-10-16T14:40:10.492Z,6.87
2018-10-16T14:42:38.484Z,7.45
2018-10-16T14:45:07.044Z,6.65
2018-10-16T14:47:35.101Z,6.35
2018-10-16T14:50:03.175Z,6.53
2018-10-16T14:52:31.196Z,6.70
2018-10-16T14:54:59.348Z,6.40
2018-10-16T14:57:27.412Z,6.42
2018-10-16T14:59:55.460Z,5.92
2018-10-16T15:02:23.532Z,6.75
2018-10-16T15:04:58.000Z,6.80
2018-10-16T15:07:26.069Z,6.72
2018-10-16T15:09:54.189Z,6.62
2018-10-16T15:12:27.472Z,6.37
2018-10-16T15:14:55.508Z,6.40
2018-10-16T15:17:23.572Z,6.35
2018-10-16T15:19:51.686Z,6.50
2018-10-16T15:22:19.741Z,6.20
2018-10-16T15:24:48.372Z,5.92
2018-10-16T15:27:16.981Z,5.92
2018-10-16T15:29:45.073Z,6.83
2018-10-16T15:32:13.255Z,6.65
2018-10-16T15:34:41.293Z,6.95
2018-10-16T15:37:09.402Z,6.40
2018-10-16T15:39:37.497Z,6.87
2018-10-16T15:42:05.597Z,6.25
2018-10-16T15:44:33.713Z,6.50
2018-10-16T15:47:01.773Z,6.10
2018-10-16T15:49:29.858Z,6.20
2018-10-16T15:51:57.970Z,6.80
2018-10-16T15:54:26.022Z,6.47
2018-10-16T15:56:54.121Z,6.65
2018-10-16T15:59:22.213Z,12.28
2018-10-16T16:01:50.307Z,7.70
2018-10-16T16:04:18.455Z,8.45
2018-10-16T16:06:46.546Z,8.15
2018-10-16T16:09:14.642Z,7.95
2018-10-16T16:11:42.722Z,7.42
2018-10-16T16:14:10.825Z,7.42
2018-10-16T16:16:38.871Z,7.35
2018-10-16T16:19:06.972Z,7.80
2018-10-16T16:21:35.052Z,8.00
2018-10-16T16:24:03.221Z,8.25
2018-10-16T16:26:31.253Z,7.80
2018-10-16T16:28:59.309Z,8.50
2018-10-16T16:31:27.522Z,7.45
2018-10-16T16:33:55.661Z,7.35
2018-10-16T16:36:23.672Z,7.70
2018-10-16T16:38:51.764Z,7.50
2018-10-16T16:41:19.820Z,7.87
2018-10-16T16:43:48.032Z,7.67
2018-10-16T16:46:16.013Z,7.30
2018-10-16T16:48:44.076Z,7.87
2018-10-16T16:51:12.165Z,7.60
2018-10-16T16:53:40.260Z,7.50
2018-10-16T16:56:08.381Z,9.40
2018-10-16T16:58:36.512Z,8.67
2018-10-16T17:01:04.637Z,8.87
2018-10-16T17:03:32.745Z,8.10
2018-10-16T17:06:00.861Z,8.40
2018-10-16T17:08:28.953Z,8.30
2018-10-16T17:10:57.020Z,8.80
2018-10-16T17:13:25.132Z,8.40
2018-10-16T17:15:53.229Z,10.73
2018-10-16T17:18:21.450Z,9.70
2018-10-16T17:20:49.548Z,10.17
2018-10-16T17:23:17.605Z,9.87
2018-10-16T17:25:45.991Z,9.50
2018-10-16T17:28:13.846Z,11.30
2018-10-16T17:30:41.887Z,10.60
2018-10-16T17:33:09.999Z,10.20
2018-10-16T17:35:38.037Z,10.33
2018-10-16T17:38:06.125Z,10.40
2018-10-16T17:40:34.255Z,10.67
2018-10-16T17:43:02.454Z,9.93
2018-10-16T17:45:30.533Z,10.47
2018-10-16T17:47:58.701Z,10.30
2018-10-16T17:50:26.621Z,9.30
2018-10-16T17:52:54.813Z,9.70
2018-10-16T17:55:22.897Z,10.33
2018-10-16T17:57:50.988Z,10.00
2018-10-16T18:00:19.865Z,10.23
2018-10-16T18:02:47.915Z,9.63
2018-10-16T18:05:16.424Z,9.10
2018-10-16T18:07:45.317Z,9.10
2018-10-16T18:10:14.045Z,9.83
2018-10-16T18:12:42.221Z,9.57
2018-10-16T18:15:11.611Z,9.60
2018-10-16T18:17:40.982Z,10.00
2018-10-16T18:20:09.993Z,10.03
2018-10-16T18:22:38.086Z,9.43
2018-10-16T18:25:06.365Z,10.17
2018-10-16T18:27:34.454Z,11.43
2018-10-16T18:30:02.760Z,11.57
2018-10-16T18:32:30.869Z,11.37
2018-10-16T18:34:58.933Z,11.10
2018-10-16T18:37:27.006Z,11.60
2018-10-16T18:39:55.146Z,11.10
2018-10-16T18:42:23.218Z,11.03
2018-10-16T18:44:51.253Z,11.30
2018-10-16T18:47:19.319Z,11.20
2018-10-16T18:49:47.362Z,11.77
2018-10-16T18:52:15.462Z,11.27
2018-10-16T18:54:43.578Z,11.80
2018-10-16T18:57:11.662Z,11.17
2018-10-16T18:59:39.786Z,13.47
2018-10-16T19:02:07.911Z,12.03
2018-10-16T19:04:36.035Z,12.20
2018-10-16T19:07:04.323Z,11.97
2018-10-16T19:09:32.486Z,11.83
2018-10-16T19:12:00.599Z,11.60
2018-10-16T19:14:28.747Z,11.80
2018-10-16T19:16:56.907Z,11.67
2018-10-16T19:19:24.987Z,12.23
2018-10-16T19:21:53.091Z,12.60
2018-10-16T19:24:21.191Z,11.73
2018-10-16T19:26:49.280Z,12.30
2018-10-16T19:29:17.419Z,12.10
2018-10-16T19:31:45.572Z,11.90
2018-10-16T19:34:13.682Z,12.90
2018-10-16T19:36:41.808Z,12.00
2018-10-16T19:39:11.176Z,12.07
2018-10-16T19:41:40.310Z,12.43
2018-10-16T19:44:08.495Z,13.43
2018-10-16T19:46:43.056Z,12.60
2018-10-16T19:49:11.139Z,12.37
2018-10-16T19:51:39.228Z,12.57
2018-10-16T19:54:07.336Z,12.73
2018-10-16T19:56:35.451Z,13.30
2018-10-16T19:59:03.535Z,12.10
2018-10-16T20:01:31.615Z,12.40
2018-10-16T20:03:59.728Z,13.30
2018-10-16T20:06:27.812Z,12.67
2018-10-16T20:08:56.008Z,13.63
2018-10-16T20:11:24.080Z,14.50
2018-10-16T20:13:52.186Z,14.63
2018-10-16T20:16:20.332Z,16.47
2018-10-16T20:18:48.452Z,15.90
2018-10-16T20:21:16.544Z,15.00
2018-10-16T20:23:44.660Z,15.10
2018-10-16T20:26:12.768Z,14.43
2018-10-16T20:28:40.847Z,15.47
2018-10-16T20:31:09.010Z,15.77
2018-10-16T20:33:37.060Z,15.60
2018-10-16T20:36:05.192Z,15.23
2018-10-16T20:38:33.311Z,15.70
2018-10-16T20:41:01.425Z,15.60
2018-10-16T20:43:29.524Z,14.77
2018-10-16T20:45:57.631Z,15.53
2018-10-16T20:48:25.732Z,14.97
2018-10-16T20:50:53.877Z,16.47
2018-10-16T20:53:21.976Z,15.87
2018-10-16T20:55:50.105Z,17.23
2018-10-16T20:58:18.197Z,17.13
2018-10-16T21:00:46.274Z,16.77
2018-10-16T21:03:14.359Z,16.40
2018-10-16T21:05:42.556Z,16.90
2018-10-16T21:08:10.608Z,25.80
2018-10-16T21:10:38.710Z,19.67
2018-10-16T21:13:06.882Z,16.23
2018-10-16T21:15:34.981Z,15.77
2018-10-16T21:18:03.068Z,16.57
2018-10-16T21:20:31.151Z,15.83
2018-10-16T21:22:59.290Z,16.23
2018-10-16T21:25:27.381Z,16.10
2018-10-16T21:27:55.493Z,16.00
2018-10-16T21:30:23.517Z,16.00
2018-10-16T21:32:51.524Z,15.87
2018-10-16T21:35:19.556Z,15.53
2018-10-16T21:37:47.595Z,15.90
2018-10-16T21:40:15.661Z,16.20
2018-10-16T21:42:43.708Z,16.93
2018-10-16T21:45:11.765Z,16.97
2018-10-16T21:47:39.837Z,18.67
2018-10-16T21:50:07.901Z,17.77
2018-10-16T21:52:35.973Z,16.57
2018-10-16T21:55:04.171Z,16.53
2018-10-16T21:57:32.140Z,17.30
2018-10-16T22:00:00.205Z,16.77
2018-10-16T22:02:33.768Z,17.63
2018-10-16T22:05:01.976Z,17.60
2018-10-16T22:07:29.872Z,18.43
2018-10-16T22:09:57.887Z,18.97
2018-10-16T22:12:32.436Z,18.63
2018-10-16T22:15:00.507Z,18.27
2018-10-16T22:17:28.500Z,17.03
2018-10-16T22:19:56.527Z,17.03
2018-10-16T22:22:24.558Z,18.93
2018-10-16T22:24:52.605Z,18.20
2018-10-16T22:27:20.640Z,19.00
2018-10-16T22:29:48.695Z,18.70
2018-10-16T22:32:16.732Z,18.90
2018-10-16T22:34:44.759Z,19.67
2018-10-16T22:37:12.844Z,18.80
2018-10-16T22:39:40.796Z,18.07
2018-10-16T22:42:08.824Z,18.33
2018-10-16T22:44:36.909Z,18.77
2018-10-16T22:47:04.982Z,17.67
2018-10-16T22:49:33.004Z,18.67
2018-10-16T22:52:01.047Z,19.20
2018-10-16T22:54:29.117Z,18.50
2018-10-16T22:56:57.153Z,19.03
2018-10-16T22:59:25.168Z,19.40
2018-10-16T23:01:53.257Z,18.70
2018-10-16T23:04:21.337Z,18.63
2018-10-16T23:06:49.360Z,19.03
2018-10-16T23:09:17.397Z,19.97
2018-10-16T23:11:45.452Z,19.80
2018-10-16T23:14:13.505Z,18.90
2018-10-16T23:16:41.521Z,18.87
2018-10-16T23:19:09.610Z,20.40
2018-10-16T23:21:37.569Z,19.97
2018-10-16T23:24:05.626Z,20.40
2018-10-16T23:26:33.645Z,20.03
2018-10-16T23:29:01.771Z,20.97
2018-10-16T23:31:29.773Z,20.63
2018-10-16T23:33:57.797Z,20.77
2018-10-16T23:36:25.836Z,19.33
2018-10-16T23:38:53.882Z,19.93
2018-10-16T23:41:21.917Z,19.93
2018-10-16T23:43:49.977Z,20.33
2018-10-16T23:46:18.025Z,20.63
2018-10-16T23:48:46.081Z,20.33
2018-10-16T23:51:14.161Z,20.43
2018-10-16T23:53:42.475Z,19.67
2018-10-16T23:56:10.502Z,20.43
2018-10-16T23:58:38.538Z,21.47
